createdAt,value
2023-03-01T00:00:50.040Z,15.73
2023-03-01T00:05:52.127Z,15.34
2023-03-01T00:11:16.063Z,15.20
2023-03-01T00:16:24.858Z,15.31
2023-03-01T00:21:28.053Z,15.38
2023-03-01T00:26:30.499Z,15.53
2023-03-01T00:31:34.172Z,15.38
2023-03-01T00:36:38.304Z,15.48
2023-03-01T00:41:41.465Z,15.51
2023-03-01T00:46:43.750Z,15.22
2023-03-01T00:51:45.920Z,15.34
2023-03-01T00:56:48.162Z,15.22
2023-03-01T01:01:50.698Z,15.15
2023-03-01T01:06:52.896Z,15.17
2023-03-01T01:11:54.988Z,15.22
2023-03-01T01:16:57.620Z,15.22
2023-03-01T01:21:59.892Z,15.05
2023-03-01T01:27:02.014Z,15.05
2023-03-01T01:32:04.247Z,14.97
2023-03-01T01:37:09.120Z,14.88
2023-03-01T01:42:20.407Z,14.86
2023-03-01T01:47:24.625Z,15.04
2023-03-01T01:52:33.073Z,15.21
2023-03-01T01:57:57.886Z,15.13
2023-03-01T02:03:05.238Z,15.05
2023-03-01T02:08:09.723Z,15.17
2023-03-01T02:13:12.813Z,15.36
2023-03-01T02:18:18.780Z,15.40
2023-03-01T02:23:21.458Z,15.35
2023-03-01T02:28:35.009Z,15.20
2023-03-01T02:33:40.412Z,15.13
2023-03-01T02:38:44.066Z,15.12
2023-03-01T02:43:46.830Z,15.31
2023-03-01T02:48:59.871Z,15.22
2023-03-01T02:54:10.693Z,15.22
2023-03-01T02:59:13.707Z,15.24
2023-03-01T03:04:19.531Z,15.12
2023-03-01T03:09:21.873Z,15.18
2023-03-01T03:14:24.888Z,15.14
2023-03-01T03:19:27.205Z,15.25
2023-03-01T03:24:30.073Z,15.28
2023-03-01T03:29:32.447Z,15.20
2023-03-01T03:34:34.679Z,15.23
2023-03-01T03:39:36.838Z,15.17
2023-03-01T03:44:39.073Z,15.02
2023-03-01T03:49:41.229Z,15.05
2023-03-01T03:54:43.424Z,15.13
2023-03-01T03:59:45.508Z,14.92
2023-03-01T04:04:47.617Z,15.06
2023-03-01T04:09:49.858Z,15.15
2023-03-01T04:14:52.199Z,15.27
2023-03-01T04:19:54.374Z,15.19
2023-03-01T04:24:56.615Z,14.90
2023-03-01T04:29:58.712Z,14.77
2023-03-01T04:35:01.638Z,14.59
2023-03-01T04:40:17.518Z,14.60
2023-03-01T04:45:20.150Z,14.83
2023-03-01T04:50:23.013Z,14.93
2023-03-01T04:55:27.155Z,15.01
2023-03-01T05:00:29.370Z,14.94
2023-03-01T05:05:38.001Z,14.94
2023-03-01T05:10:40.275Z,14.90
2023-03-01T05:15:42.579Z,15.03
2023-03-01T05:20:46.053Z,14.86
2023-03-01T05:25:48.198Z,14.92
2023-03-01T05:30:53.052Z,14.73
2023-03-01T05:35:55.542Z,15.01
2023-03-01T05:40:57.747Z,15.17
2023-03-01T05:46:01.240Z,15.22
2023-03-01T05:51:03.520Z,14.93
2023-03-01T05:56:06.004Z,15.03
2023-03-01T06:01:13.287Z,15.19
2023-03-01T06:06:15.432Z,15.17
2023-03-01T06:11:17.863Z,15.19
2023-03-01T06:16:20.093Z,15.28
2023-03-01T06:21:22.245Z,15.18
2023-03-01T06:26:24.426Z,15.26
2023-03-01T06:31:26.622Z,15.46
2023-03-01T06:36:29.066Z,15.55
2023-03-01T06:41:31.348Z,15.60
2023-03-01T06:46:33.902Z,15.36
2023-03-01T06:51:39.234Z,15.52
2023-03-01T06:56:41.404Z,15.69
2023-03-01T07:01:43.871Z,15.48
2023-03-01T07:06:45.951Z,15.73
2023-03-01T07:11:48.392Z,15.41
2023-03-01T07:16:50.569Z,15.36
2023-03-01T07:21:52.788Z,15.23
2023-03-01T07:26:55.076Z,15.31
2023-03-01T07:31:57.252Z,15.42
2023-03-01T07:36:59.404Z,15.33
2023-03-01T07:42:01.507Z,15.47
2023-03-01T07:47:05.545Z,15.23
2023-03-01T07:52:07.704Z,14.82
2023-03-01T07:57:09.878Z,15.05
2023-03-01T08:02:12.801Z,15.50
2023-03-01T08:07:15.120Z,15.66
2023-03-01T08:12:20.126Z,15.87
2023-03-01T08:17:22.535Z,16.13
2023-03-01T08:22:24.882Z,16.07
2023-03-01T08:27:27.140Z,16.09
2023-03-01T08:32:29.417Z,16.19
2023-03-01T08:37:34.185Z,16.44
2023-03-01T08:42:36.425Z,16.35
2023-03-01T08:47:38.805Z,16.34
2023-03-01T08:52:41.066Z,16.46
2023-03-01T08:57:43.232Z,16.62
2023-03-01T09:02:45.467Z,16.81
2023-03-01T09:07:47.668Z,16.71
2023-03-01T09:12:49.861Z,16.52
2023-03-01T09:17:53.182Z,16.79
2023-03-01T09:22:55.479Z,16.79
2023-03-01T09:27:57.745Z,17.08
2023-03-01T09:32:59.948Z,17.02
2023-03-01T09:38:02.510Z,17.26
2023-03-01T09:43:17.219Z,17.43
2023-03-01T09:48:26.008Z,17.74
2023-03-01T09:53:36.562Z,17.81
2023-03-01T09:58:44.916Z,17.91
2023-03-01T10:04:05.700Z,17.94
2023-03-01T10:09:14.038Z,18.08
2023-03-01T10:14:37.000Z,18.25
2023-03-01T10:19:43.250Z,18.52
2023-03-01T10:24:47.955Z,18.73
2023-03-01T10:30:23.114Z,18.71
2023-03-01T10:35:29.084Z,18.81
2023-03-01T10:40:31.953Z,18.83
2023-03-01T10:45:40.327Z,18.84
2023-03-01T10:50:48.296Z,19.00
2023-03-01T10:55:59.958Z,18.92
2023-03-01T11:01:03.944Z,19.15
2023-03-01T11:06:22.198Z,19.08
2023-03-01T11:11:32.827Z,18.77
2023-03-01T11:16:38.815Z,19.00
2023-03-01T11:21:48.828Z,18.99
2023-03-01T11:26:55.986Z,18.96
2023-03-01T11:32:03.092Z,19.00
2023-03-01T11:37:27.615Z,19.04
2023-03-01T11:42:45.506Z,19.30
2023-03-01T11:48:01.304Z,19.41
2023-03-01T11:53:33.098Z,19.25
2023-03-01T11:58:49.320Z,18.69
2023-03-01T12:04:07.278Z,18.04
2023-03-01T12:09:34.177Z,18.53
2023-03-01T12:15:08.005Z,18.95
2023-03-01T12:20:37.554Z,19.02
2023-03-01T12:26:05.032Z,18.84
2023-03-01T12:31:35.509Z,18.80
2023-03-01T12:36:45.491Z,18.60
2023-03-01T12:42:13.896Z,18.48
2023-03-01T12:47:50.972Z,18.49
2023-03-01T12:52:56.995Z,18.41
2023-03-01T12:58:01.886Z,18.25
2023-03-01T13:03:15.734Z,18.47
2023-03-01T13:08:43.944Z,18.48
2023-03-01T13:13:47.922Z,18.59
2023-03-01T13:18:50.189Z,18.57
2023-03-01T13:23:52.496Z,18.88
2023-03-01T13:28:57.299Z,18.96
2023-03-01T13:34:08.629Z,18.62
2023-03-01T13:39:34.528Z,18.52
2023-03-01T13:44:40.107Z,18.44
2023-03-01T13:49:53.330Z,18.71
2023-03-01T13:54:57.151Z,18.88
2023-03-01T13:59:59.576Z,19.03
2023-03-01T14:05:03.138Z,19.19
2023-03-01T14:10:07.434Z,19.09
2023-03-01T14:15:28.847Z,19.32
2023-03-01T14:20:36.801Z,19.09
2023-03-01T14:25:40.265Z,18.94
2023-03-01T14:30:51.081Z,18.71
2023-03-01T14:35:54.549Z,18.58
2023-03-01T14:41:00.739Z,18.56
2023-03-01T14:46:03.060Z,18.32
2023-03-01T14:51:07.238Z,18.16
2023-03-01T14:56:16.515Z,17.79
2023-03-01T15:01:21.222Z,17.82
2023-03-01T15:06:25.081Z,17.61
2023-03-01T15:11:32.875Z,17.54
2023-03-01T15:16:40.461Z,17.33
2023-03-01T15:21:48.329Z,17.12
2023-03-01T15:26:58.905Z,17.33
2023-03-01T15:32:26.198Z,17.34
2023-03-01T15:37:49.897Z,17.19
2023-03-01T15:42:53.028Z,17.05
2023-03-01T15:48:03.344Z,16.86
2023-03-01T15:53:08.214Z,16.79
2023-03-01T15:58:14.738Z,16.86
2023-03-01T16:03:22.753Z,16.79
2023-03-01T16:08:25.056Z,16.69
2023-03-01T16:13:29.079Z,16.55
2023-03-01T16:18:31.605Z,16.47
2023-03-01T16:23:34.265Z,16.52
2023-03-01T16:28:36.437Z,16.37
2023-03-01T16:33:39.298Z,16.22
2023-03-01T16:38:41.545Z,15.84
2023-03-01T16:43:44.210Z,15.98
2023-03-01T16:48:48.387Z,16.11
2023-03-01T16:53:52.193Z,16.11
2023-03-01T16:58:54.892Z,16.17
2023-03-01T17:03:57.083Z,15.96
2023-03-01T17:09:00.381Z,15.97
2023-03-01T17:14:02.563Z,16.04
2023-03-01T17:19:04.729Z,15.96
2023-03-01T17:24:07.128Z,15.94
2023-03-01T17:29:09.429Z,16.02
2023-03-01T17:34:11.591Z,15.95
2023-03-01T17:39:13.979Z,16.12
2023-03-01T17:44:16.177Z,16.04
2023-03-01T17:49:18.670Z,15.87
2023-03-01T17:54:20.947Z,15.92
2023-03-01T17:59:23.187Z,15.96
2023-03-01T18:04:25.456Z,16.05
2023-03-01T18:09:28.687Z,16.04
2023-03-01T18:14:34.303Z,15.95
2023-03-01T18:19:36.465Z,15.95
2023-03-01T18:24:39.577Z,15.92
2023-03-01T18:29:41.749Z,15.78
2023-03-01T18:34:43.877Z,15.82
2023-03-01T18:39:46.230Z,15.83
2023-03-01T18:44:49.381Z,15.74
2023-03-01T18:49:51.625Z,15.75
2023-03-01T18:54:53.821Z,15.91
2023-03-01T18:59:56.005Z,15.95
2023-03-01T19:04:58.279Z,15.83
2023-03-01T19:10:00.552Z,15.77
2023-03-01T19:15:02.856Z,15.75
2023-03-01T19:20:06.085Z,15.88
2023-03-01T19:25:08.796Z,15.80
2023-03-01T19:30:11.689Z,15.81
2023-03-01T19:35:13.954Z,15.54
2023-03-01T19:40:16.282Z,15.67
2023-03-01T19:45:25.219Z,15.79
2023-03-01T19:50:34.177Z,15.69
2023-03-01T19:55:38.082Z,15.72
2023-03-01T20:00:46.042Z,15.79
2023-03-01T20:05:48.510Z,15.78
2023-03-01T20:10:51.261Z,15.74
2023-03-01T20:15:55.782Z,15.68
2023-03-01T20:20:59.572Z,15.70
2023-03-01T20:26:05.004Z,15.65
2023-03-01T20:31:10.089Z,15.74
2023-03-01T20:36:12.839Z,15.69
2023-03-01T20:41:15.145Z,15.71
2023-03-01T20:46:17.287Z,15.47
2023-03-01T20:51:20.205Z,15.65
2023-03-01T20:56:23.275Z,15.72
2023-03-01T21:01:25.915Z,15.78
2023-03-01T21:06:28.482Z,15.70
2023-03-01T21:11:30.795Z,15.62
2023-03-01T21:16:34.265Z,15.56
2023-03-01T21:21:37.345Z,15.70
2023-03-01T21:26:39.834Z,15.76
2023-03-01T21:31:42.058Z,15.34
2023-03-01T21:36:44.158Z,15.31
2023-03-01T21:41:46.621Z,15.25
2023-03-01T21:46:50.092Z,15.36
2023-03-01T21:51:52.636Z,15.30
2023-03-01T21:56:54.856Z,14.98
2023-03-01T22:01:56.985Z,14.84
2023-03-01T22:06:59.172Z,15.01
2023-03-01T22:12:04.340Z,15.04
2023-03-01T22:17:06.819Z,14.94
2023-03-01T22:22:09.180Z,14.95
2023-03-01T22:27:11.341Z,15.04
2023-03-01T22:32:13.616Z,14.98
2023-03-01T22:37:15.934Z,14.95
2023-03-01T22:42:19.085Z,14.95
2023-03-01T22:47:21.243Z,14.95
2023-03-01T22:52:23.833Z,14.79
2023-03-01T22:57:25.917Z,14.67
2023-03-01T23:02:28.844Z,14.73
2023-03-01T23:07:31.225Z,14.83
2023-03-01T23:12:33.423Z,14.76
2023-03-01T23:17:36.014Z,14.80
2023-03-01T23:22:38.617Z,14.73
2023-03-01T23:27:40.894Z,14.91
2023-03-01T23:32:43.100Z,14.87
2023-03-01T23:37:45.976Z,14.84
2023-03-01T23:42:48.077Z,14.85
2023-03-01T23:47:50.184Z,14.69
2023-03-01T23:52:52.323Z,14.77
2023-03-01T23:57:54.594Z,14.81
